createdAt,value
2022-12-04T00:02:12.677Z,101382.34
2022-12-04T00:04:39.470Z,101382.56
2022-12-04T00:07:06.522Z,101380.69
2022-12-04T00:09:33.268Z,101382.81
2022-12-04T00:11:59.984Z,101382.63
2022-12-04T00:14:26.717Z,101382.41
2022-12-04T00:16:53.515Z,101384.53
2022-12-04T00:19:20.396Z,101380.31
2022-12-04T00:21:47.118Z,101378.16
2022-12-04T00:24:13.852Z,101380.66
2022-12-04T00:26:40.611Z,101384.25
2022-12-04T00:29:07.417Z,101374.66
2022-12-04T00:31:34.266Z,101379.16
2022-12-04T00:34:02.082Z,101376.19
2022-12-04T00:36:29.169Z,101375.00
2022-12-04T00:38:55.984Z,101377.09
2022-12-04T00:41:22.740Z,101389.22
2022-12-04T00:43:49.489Z,101383.41
2022-12-04T00:46:16.374Z,101378.53
2022-12-04T00:48:43.241Z,101383.63
2022-12-04T00:51:10.186Z,101383.25
2022-12-04T00:53:36.963Z,101390.44
2022-12-04T00:56:03.750Z,101385.78
2022-12-04T00:58:30.491Z,101371.19
2022-12-04T01:00:57.305Z,101380.31
2022-12-04T01:03:24.077Z,101378.59
2022-12-04T01:05:50.901Z,101376.19
2022-12-04T01:08:17.718Z,101384.44
2022-12-04T01:10:44.506Z,101387.88
2022-12-04T01:13:11.325Z,101391.19
2022-12-04T01:15:38.071Z,101378.09
2022-12-04T01:18:04.808Z,101383.50
2022-12-04T01:20:31.529Z,101380.50
2022-12-04T01:22:58.264Z,101386.88
2022-12-04T01:25:24.981Z,101383.13
2022-12-04T01:27:51.692Z,101380.66
2022-12-04T01:30:18.452Z,101374.56
2022-12-04T01:32:45.189Z,101380.28
2022-12-04T01:35:11.920Z,101378.78
2022-12-04T01:37:38.671Z,101377.34
2022-12-04T01:40:05.479Z,101370.56
2022-12-04T01:42:32.237Z,101368.44
2022-12-04T01:44:58.978Z,101361.25
2022-12-04T01:47:25.698Z,101366.13
2022-12-04T01:49:52.723Z,101350.97
2022-12-04T01:52:19.627Z,101358.34
2022-12-04T01:54:46.389Z,101358.09
2022-12-04T01:57:13.116Z,101356.75
2022-12-04T01:59:39.877Z,101354.41
2022-12-04T02:02:06.832Z,101347.47
2022-12-04T02:04:33.607Z,101343.75
2022-12-04T02:07:00.352Z,101344.03
2022-12-04T02:09:27.340Z,101346.63
2022-12-04T02:11:54.189Z,101346.22
2022-12-04T02:14:20.963Z,101337.97
2022-12-04T02:16:47.789Z,101337.13
2022-12-04T02:19:14.629Z,101333.56
2022-12-04T02:21:41.486Z,101339.88
2022-12-04T02:24:08.211Z,101337.97
2022-12-04T02:26:34.943Z,101334.16
2022-12-04T02:29:01.695Z,101343.06
2022-12-04T02:31:28.444Z,101330.03
2022-12-04T02:33:55.191Z,101335.38
2022-12-04T02:36:21.999Z,101331.19
2022-12-04T02:38:48.739Z,101333.16
2022-12-04T02:41:15.525Z,101326.94
2022-12-04T02:43:42.451Z,101339.25
2022-12-04T02:46:09.234Z,101342.28
2022-12-04T02:48:36.007Z,101343.38
2022-12-04T02:51:02.805Z,101341.13
2022-12-04T02:53:29.603Z,101345.34
2022-12-04T02:55:56.330Z,101337.34
2022-12-04T02:58:23.081Z,101338.84
2022-12-04T03:00:49.853Z,101335.88
2022-12-04T03:03:16.666Z,101348.34
2022-12-04T03:05:43.429Z,101351.31
2022-12-04T03:08:10.231Z,101351.94
2022-12-04T03:10:37.027Z,101344.75
2022-12-04T03:13:03.964Z,101346.72
2022-12-04T03:15:30.700Z,101342.59
2022-12-04T03:17:57.437Z,101344.69
2022-12-04T03:20:24.227Z,101350.72
2022-12-04T03:22:50.968Z,101347.34
2022-12-04T03:25:17.722Z,101347.94
2022-12-04T03:27:44.469Z,101335.53
2022-12-04T03:30:11.285Z,101335.41
2022-12-04T03:32:38.035Z,101333.94
2022-12-04T03:35:04.800Z,101335.84
2022-12-04T03:37:31.529Z,101331.63
2022-12-04T03:39:58.454Z,101334.59
2022-12-04T03:42:25.304Z,101340.94
2022-12-04T03:44:52.083Z,101344.78
2022-12-04T03:47:18.808Z,101348.13
2022-12-04T03:49:45.639Z,101340.75
2022-12-04T03:52:12.478Z,101340.09
2022-12-04T03:54:39.199Z,101338.31
2022-12-04T03:57:05.935Z,101338.41
2022-12-04T03:59:32.725Z,101335.78
2022-12-04T04:01:59.548Z,101338.16
2022-12-04T04:04:26.442Z,101330.44
2022-12-04T04:06:53.176Z,101326.63
2022-12-04T04:09:20.065Z,101325.75
2022-12-04T04:11:46.804Z,101330.44
2022-12-04T04:14:32.340Z,101329.84
2022-12-04T04:17:17.619Z,101328.19
2022-12-04T04:20:02.863Z,101331.84
2022-12-04T04:22:51.634Z,101326.13
2022-12-04T04:25:24.217Z,101320.03
2022-12-04T04:27:50.972Z,101312.59
2022-12-04T04:30:17.716Z,101319.81
2022-12-04T04:32:44.639Z,101329.75
2022-12-04T04:35:11.414Z,101322.34
2022-12-04T04:37:38.147Z,101323.91
2022-12-04T04:40:05.653Z,101318.22
2022-12-04T04:42:32.448Z,101315.16
2022-12-04T04:44:59.179Z,101323.09
2022-12-04T04:47:25.915Z,101325.13
2022-12-04T04:49:52.827Z,101326.94
2022-12-04T04:52:19.704Z,101325.53
2022-12-04T04:54:46.430Z,101332.81
2022-12-04T04:57:13.183Z,101322.25
2022-12-04T04:59:39.933Z,101315.97
2022-12-04T05:02:06.750Z,101324.66
2022-12-04T05:04:33.525Z,101316.00
2022-12-04T05:07:00.259Z,101319.38
2022-12-04T05:09:26.981Z,101312.19
2022-12-04T05:11:53.716Z,101314.72
2022-12-04T05:14:20.446Z,101309.22
2022-12-04T05:16:47.167Z,101308.81
2022-12-04T05:19:32.576Z,101307.50
2022-12-04T05:21:59.334Z,101306.19
2022-12-04T05:24:26.071Z,101313.75
2022-12-04T05:26:52.843Z,101319.38
2022-12-04T05:29:19.607Z,101313.00
2022-12-04T05:31:46.415Z,101319.56
2022-12-04T05:34:13.220Z,101305.66
2022-12-04T05:36:40.036Z,101303.19
2022-12-04T05:39:06.773Z,101301.53
2022-12-04T05:41:33.582Z,101298.44
2022-12-04T05:44:00.324Z,101302.03
2022-12-04T05:46:27.117Z,101298.03
2022-12-04T05:48:53.933Z,101300.56
2022-12-04T05:51:20.652Z,101304.78
2022-12-04T05:53:47.431Z,101306.28
2022-12-04T05:56:14.217Z,101297.19
2022-12-04T05:58:40.957Z,101307.31
2022-12-04T06:01:07.705Z,101302.88
2022-12-04T06:03:34.597Z,101301.19
2022-12-04T06:06:01.403Z,101295.00
2022-12-04T06:08:28.150Z,101294.88
2022-12-04T06:10:54.980Z,101296.03
2022-12-04T06:13:21.712Z,101299.78
2022-12-04T06:15:48.469Z,101292.72
2022-12-04T06:18:15.212Z,101297.47
2022-12-04T06:20:42.024Z,101301.03
2022-12-04T06:23:08.808Z,101307.41
2022-12-04T06:25:35.570Z,101307.03
2022-12-04T06:28:02.357Z,101302.44
2022-12-04T06:30:30.218Z,101306.06
2022-12-04T06:32:56.979Z,101309.03
2022-12-04T06:35:23.756Z,101307.97
2022-12-04T06:37:50.486Z,101310.94
2022-12-04T06:40:17.223Z,101313.69
2022-12-04T06:42:43.972Z,101324.44
2022-12-04T06:45:10.757Z,101323.38
2022-12-04T06:47:37.501Z,101315.56
2022-12-04T06:50:04.673Z,101322.47
2022-12-04T06:52:31.393Z,101318.50
2022-12-04T06:54:58.921Z,101309.56
2022-12-04T06:57:25.672Z,101311.47
2022-12-04T06:59:52.403Z,101313.06
2022-12-04T07:02:19.217Z,101313.53
2022-12-04T07:04:46.048Z,101311.06
2022-12-04T07:07:12.819Z,101316.88
2022-12-04T07:09:39.578Z,101315.47
2022-12-04T07:12:06.464Z,101313.38
2022-12-04T07:14:33.209Z,101321.88
2022-12-04T07:17:00.060Z,101312.81
2022-12-04T07:19:26.794Z,101320.63
2022-12-04T07:21:53.545Z,101322.34
2022-12-04T07:24:20.333Z,101322.78
2022-12-04T07:26:47.062Z,101319.38
2022-12-04T07:29:13.856Z,101328.28
2022-12-04T07:31:40.695Z,101329.53
2022-12-04T07:34:07.801Z,101327.00
2022-12-04T07:36:34.548Z,101333.13
2022-12-04T07:39:01.500Z,101335.88
2022-12-04T07:41:28.274Z,101326.34
2022-12-04T07:43:55.098Z,101329.31
2022-12-04T07:46:21.953Z,101323.41
2022-12-04T07:48:48.830Z,101335.09
2022-12-04T07:51:15.591Z,101334.69
2022-12-04T07:53:42.359Z,101340.75
2022-12-04T07:56:09.092Z,101334.69
2022-12-04T07:58:35.866Z,101342.13
2022-12-04T08:01:02.666Z,101344.31
2022-12-04T08:03:29.464Z,101339.25
2022-12-04T08:05:56.204Z,101353.22
2022-12-04T08:08:23.496Z,101349.63
2022-12-04T08:10:50.235Z,101338.41
2022-12-04T08:13:16.996Z,101340.94
2022-12-04T08:15:43.741Z,101331.41
2022-12-04T08:18:10.470Z,101337.34
2022-12-04T08:20:37.200Z,101348.78
2022-12-04T08:23:03.937Z,101348.75
2022-12-04T08:25:30.671Z,101346.00
2022-12-04T08:27:57.392Z,101353.66
2022-12-04T08:30:24.181Z,101356.28
2022-12-04T08:32:50.974Z,101357.03
2022-12-04T08:35:17.691Z,101352.38
2022-12-04T08:37:44.420Z,101349.81
2022-12-04T08:40:11.762Z,101345.88
2022-12-04T08:42:38.491Z,101352.69
2022-12-04T08:45:05.234Z,101355.50
2022-12-04T08:47:31.961Z,101356.56
2022-12-04T08:49:58.742Z,101346.84
2022-12-04T08:52:25.476Z,101346.44
2022-12-04T08:54:52.200Z,101348.34
2022-12-04T08:57:18.932Z,101348.97
2022-12-04T08:59:45.676Z,101354.91
2022-12-04T09:02:13.090Z,101354.91
2022-12-04T09:04:39.851Z,101358.69
2022-12-04T09:07:06.644Z,101350.16
2022-12-04T09:09:33.380Z,101366.66
2022-12-04T09:12:00.108Z,101367.38
2022-12-04T09:14:26.863Z,101355.94
2022-12-04T09:16:53.582Z,101352.66
2022-12-04T09:19:20.320Z,101347.66
2022-12-04T09:21:47.078Z,101344.78
2022-12-04T09:24:13.814Z,101338.72
2022-12-04T09:26:40.632Z,101328.63
2022-12-04T09:29:07.601Z,101343.03
2022-12-04T09:31:34.402Z,101336.28
2022-12-04T09:34:01.179Z,101336.91
2022-12-04T09:36:27.933Z,101343.28
2022-12-04T09:38:54.676Z,101332.50
2022-12-04T09:41:21.438Z,101334.16
2022-12-04T09:43:48.168Z,101336.69
2022-12-04T09:46:14.985Z,101326.53
2022-12-04T09:48:41.797Z,101335.91
2022-12-04T09:51:16.354Z,101328.75
2022-12-04T09:53:43.142Z,101335.16
2022-12-04T09:56:09.871Z,101331.94
2022-12-04T09:58:36.631Z,101330.94
2022-12-04T10:01:03.378Z,101333.16
2022-12-04T10:03:30.273Z,101326.03
2022-12-04T10:05:57.085Z,101327.53
2022-12-04T10:08:24.004Z,101330.78
2022-12-04T10:10:50.785Z,101322.75
2022-12-04T10:13:17.516Z,101316.84
2022-12-04T10:15:44.732Z,101323.59
2022-12-04T10:18:11.569Z,101323.38
2022-12-04T10:20:38.339Z,101317.88
2022-12-04T10:23:09.253Z,101323.59
2022-12-04T10:25:38.919Z,101315.56
2022-12-04T10:28:05.666Z,101307.69
2022-12-04T10:30:32.408Z,101306.06
2022-12-04T10:32:59.204Z,101311.19
2022-12-04T10:35:25.947Z,101311.09
2022-12-04T10:37:52.726Z,101298.16
2022-12-04T10:40:20.058Z,101286.84
2022-12-04T10:42:46.816Z,101293.88
2022-12-04T10:45:13.551Z,101294.56
2022-12-04T10:47:40.279Z,101282.75
2022-12-04T10:50:07.031Z,101288.06
2022-12-04T10:52:33.748Z,101292.31
2022-12-04T10:55:00.551Z,101288.28
2022-12-04T10:57:27.328Z,101289.16
2022-12-04T10:59:54.851Z,101282.78
2022-12-04T11:02:22.707Z,101274.97
2022-12-04T11:04:49.536Z,101274.97
2022-12-04T11:07:16.307Z,101271.78
2022-12-04T11:09:43.101Z,101262.44
2022-12-04T11:12:09.884Z,101268.53
2022-12-04T11:14:36.761Z,101265.28
2022-12-04T11:17:03.504Z,101267.31
2022-12-04T11:19:30.272Z,101265.25
2022-12-04T11:21:57.070Z,101270.53
2022-12-04T11:24:23.851Z,101268.88
2022-12-04T11:26:50.647Z,101263.47
2022-12-04T11:29:17.394Z,101267.75
2022-12-04T11:31:44.185Z,101260.16
2022-12-04T11:34:11.013Z,101264.84
2022-12-04T11:36:40.315Z,101259.34
2022-12-04T11:39:07.234Z,101259.78
2022-12-04T11:41:34.041Z,101265.22
2022-12-04T11:44:01.154Z,101259.34
2022-12-04T11:46:28.026Z,101254.22
2022-12-04T11:48:54.823Z,101265.44
2022-12-04T11:51:21.568Z,101262.06
2022-12-04T11:53:48.303Z,101256.50
2022-12-04T11:56:15.136Z,101251.31
2022-12-04T11:58:44.732Z,101254.97
2022-12-04T12:01:11.481Z,101252.91
2022-12-04T12:03:38.292Z,101246.28
2022-12-04T12:06:05.173Z,101255.78
2022-12-04T12:08:32.015Z,101258.41
2022-12-04T12:10:58.868Z,101247.44
2022-12-04T12:13:25.640Z,101242.41
2022-12-04T12:15:52.371Z,101244.31
2022-12-04T12:18:20.951Z,101248.38
2022-12-04T12:20:49.132Z,101241.59
2022-12-04T12:23:16.008Z,101239.03
2022-12-04T12:25:46.153Z,101239.88
2022-12-04T12:28:15.666Z,101230.97
2022-12-04T12:30:42.401Z,101240.06
2022-12-04T12:33:09.240Z,101244.72
2022-12-04T12:35:35.970Z,101247.88
2022-12-04T12:38:02.736Z,101232.13
2022-12-04T12:40:29.930Z,101240.25
2022-12-04T12:42:58.458Z,101228.16
2022-12-04T12:45:25.625Z,101223.44
2022-12-04T12:47:52.512Z,101221.72
2022-12-04T12:50:19.361Z,101225.16
2022-12-04T12:52:46.096Z,101216.59
2022-12-04T12:55:12.845Z,101231.41
2022-12-04T12:57:39.621Z,101220.88
2022-12-04T13:00:06.403Z,101223.00
2022-12-04T13:02:33.211Z,101214.31
2022-12-04T13:05:00.044Z,101214.09
2022-12-04T13:07:26.779Z,101219.16
2022-12-04T13:09:53.800Z,101214.94
2022-12-04T13:12:20.715Z,101204.56
2022-12-04T13:14:49.185Z,101211.50
2022-12-04T13:17:16.196Z,101206.84
2022-12-04T13:19:46.208Z,101207.66
2022-12-04T13:22:12.956Z,101198.84
2022-12-04T13:24:39.689Z,101185.59
2022-12-04T13:27:06.417Z,101170.81
2022-12-04T13:29:33.169Z,101176.69
2022-12-04T13:32:00.584Z,101175.84
2022-12-04T13:34:27.475Z,101181.44
2022-12-04T13:36:54.281Z,101179.63
2022-12-04T13:39:21.028Z,101179.81
2022-12-04T13:41:47.809Z,101182.81
2022-12-04T13:44:14.536Z,101184.06
2022-12-04T13:46:41.343Z,101178.16
2022-12-04T13:49:08.094Z,101183.06
2022-12-04T13:51:37.668Z,101180.28
2022-12-04T13:54:04.416Z,101183.22
2022-12-04T13:56:31.182Z,101174.75
2022-12-04T13:58:57.904Z,101171.97
2022-12-04T14:01:24.695Z,101175.97
2022-12-04T14:03:52.280Z,101181.91
2022-12-04T14:06:19.006Z,101171.69
2022-12-04T14:08:45.797Z,101172.97
2022-12-04T14:11:12.524Z,101162.53
2022-12-04T14:13:39.244Z,101155.97
2022-12-04T14:16:06.041Z,101144.69
2022-12-04T14:18:32.765Z,101153.53
2022-12-04T14:20:59.919Z,101150.34
2022-12-04T14:23:26.749Z,101159.22
2022-12-04T14:25:56.878Z,101152.81
2022-12-04T14:28:24.702Z,101154.94
2022-12-04T14:30:51.496Z,101153.44
2022-12-04T14:33:18.551Z,101153.44
2022-12-04T14:35:45.293Z,101156.19
2022-12-04T14:38:12.037Z,101152.78
2022-12-04T14:40:38.793Z,101157.44
2022-12-04T14:43:05.560Z,101154.47
2022-12-04T14:45:32.345Z,101162.25
2022-12-04T14:47:59.079Z,101169.63
2022-12-04T14:50:25.849Z,101165.84
2022-12-04T14:52:52.603Z,101151.97
2022-12-04T14:55:19.434Z,101153.84
2022-12-04T14:57:46.193Z,101148.66
2022-12-04T15:00:12.945Z,101154.72
2022-12-04T15:02:39.794Z,101155.38
2022-12-04T15:05:06.576Z,101158.63
2022-12-04T15:07:33.533Z,101163.59
2022-12-04T15:10:19.146Z,101165.91
2022-12-04T15:12:45.960Z,101161.28
2022-12-04T15:15:13.026Z,101173.97
2022-12-04T15:17:39.825Z,101176.28
2022-12-04T15:20:06.636Z,101167.59
2022-12-04T15:22:33.355Z,101181.13
2022-12-04T15:25:00.088Z,101180.25
2022-12-04T15:27:31.984Z,101175.59
2022-12-04T15:29:59.595Z,101175.78
2022-12-04T15:32:28.416Z,101176.19
2022-12-04T15:34:55.470Z,101172.16
2022-12-04T15:37:22.377Z,101167.13
2022-12-04T15:39:52.266Z,101148.88
2022-12-04T15:42:20.121Z,101150.59
2022-12-04T15:44:46.849Z,101148.91
2022-12-04T15:47:13.596Z,101151.59
2022-12-04T15:49:40.349Z,101151.69
2022-12-04T15:52:07.206Z,101157.88
2022-12-04T15:54:36.189Z,101156.19
2022-12-04T15:57:02.948Z,101154.94
2022-12-04T15:59:29.708Z,101155.78
2022-12-04T16:01:56.587Z,101157.69
2022-12-04T16:04:23.562Z,101151.13
2022-12-04T16:06:50.303Z,101156.59
2022-12-04T16:09:17.064Z,101154.47
2022-12-04T16:11:43.808Z,101152.53
2022-12-04T16:14:10.524Z,101156.13
2022-12-04T16:16:37.257Z,101154.59
2022-12-04T16:19:04.014Z,101151.63
2022-12-04T16:21:30.758Z,101144.81
2022-12-04T16:23:57.492Z,101154.22
2022-12-04T16:26:24.236Z,101151.28
2022-12-04T16:28:50.998Z,101153.03
2022-12-04T16:31:17.826Z,101145.69
2022-12-04T16:33:44.710Z,101154.16
2022-12-04T16:36:11.583Z,101154.91
2022-12-04T16:38:38.354Z,101157.25
2022-12-04T16:41:05.105Z,101149.22
2022-12-04T16:43:31.824Z,101148.63
2022-12-04T16:45:58.567Z,101144.78
2022-12-04T16:48:25.983Z,101153.22
2022-12-04T16:50:52.710Z,101154.72
2022-12-04T16:53:19.566Z,101154.47
2022-12-04T16:55:46.291Z,101154.03
2022-12-04T16:58:13.200Z,101163.72
2022-12-04T17:00:40.011Z,101158.63
2022-12-04T17:03:06.756Z,101157.75
2022-12-04T17:05:35.618Z,101162.00
2022-12-04T17:08:02.531Z,101147.41
2022-12-04T17:10:29.993Z,101136.22
2022-12-04T17:12:56.788Z,101148.81
2022-12-04T17:15:23.559Z,101148.69
2022-12-04T17:17:50.338Z,101162.41
2022-12-04T17:20:17.098Z,101152.59
2022-12-04T17:22:43.852Z,101161.69
2022-12-04T17:25:10.616Z,101160.84
2022-12-04T17:27:37.361Z,101153.66
2022-12-04T17:30:04.115Z,101155.78
2022-12-04T17:32:30.853Z,101157.03
2022-12-04T17:34:57.771Z,101157.47
2022-12-04T17:37:24.861Z,101161.66
2022-12-04T17:39:51.603Z,101154.25
2022-12-04T17:42:18.411Z,101148.50
2022-12-04T17:44:45.182Z,101149.50
2022-12-04T17:47:12.070Z,101162.84
2022-12-04T17:49:38.874Z,101154.88
2022-12-04T17:52:05.634Z,101150.84
2022-12-04T17:54:32.364Z,101150.28
2022-12-04T17:56:59.386Z,101143.72
2022-12-04T17:59:26.142Z,101151.88
2022-12-04T18:01:52.858Z,101157.69
2022-12-04T18:04:19.674Z,101149.41
2022-12-04T18:06:46.419Z,101149.00
2022-12-04T18:09:13.140Z,101162.97
2022-12-04T18:11:39.881Z,101156.19
2022-12-04T18:14:11.670Z,101154.53
2022-12-04T18:16:38.951Z,101152.19
2022-12-04T18:19:05.766Z,101159.13
2022-12-04T18:21:32.543Z,101150.22
2022-12-04T18:23:59.338Z,101146.22
2022-12-04T18:26:26.892Z,101146.41
2022-12-04T18:28:53.656Z,101145.53
2022-12-04T18:31:20.539Z,101153.09
2022-12-04T18:33:47.345Z,101145.47
2022-12-04T18:36:14.083Z,101148.81
2022-12-04T18:38:40.942Z,101145.22
2022-12-04T18:41:07.683Z,101137.75
2022-12-04T18:43:34.945Z,101142.78
2022-12-04T18:46:07.023Z,101143.13
2022-12-04T18:48:34.469Z,101143.03
2022-12-04T18:51:01.257Z,101136.13
2022-12-04T18:53:28.072Z,101132.53
2022-12-04T18:55:54.819Z,101132.53
2022-12-04T18:58:22.692Z,101140.59
2022-12-04T19:00:51.536Z,101139.28
2022-12-04T19:03:18.370Z,101136.13
2022-12-04T19:05:45.123Z,101143.06
2022-12-04T19:08:11.959Z,101144.28
2022-12-04T19:10:38.699Z,101152.69
2022-12-04T19:13:05.458Z,101152.34
2022-12-04T19:15:32.179Z,101154.41
2022-12-04T19:17:58.942Z,101151.09
2022-12-04T19:20:25.686Z,101147.53
2022-12-04T19:22:52.413Z,101156.28
2022-12-04T19:25:19.211Z,101150.09
2022-12-04T19:27:46.041Z,101150.00
2022-12-04T19:30:12.920Z,101151.91
2022-12-04T19:32:40.002Z,101156.81
2022-12-04T19:35:06.902Z,101158.09
2022-12-04T19:37:36.977Z,101162.09
2022-12-04T19:40:08.032Z,101154.09
2022-12-04T19:42:34.762Z,101151.13
2022-12-04T19:45:01.510Z,101153.88
2022-12-04T19:47:28.269Z,101163.38
2022-12-04T19:49:55.240Z,101161.22
2022-12-04T19:52:22.107Z,101158.69
2022-12-04T19:54:48.905Z,101166.25
2022-12-04T19:57:15.880Z,101158.84
2022-12-04T19:59:46.257Z,101159.03
2022-12-04T20:02:13.478Z,101162.41
2022-12-04T20:04:40.297Z,101154.03
2022-12-04T20:07:07.024Z,101159.31
2022-12-04T20:09:34.248Z,101146.88
2022-12-04T20:12:01.052Z,101153.25
2022-12-04T20:14:27.820Z,101142.63
2022-12-04T20:16:54.713Z,101144.31
2022-12-04T20:19:21.491Z,101148.59
2022-12-04T20:21:48.295Z,101145.63
2022-12-04T20:24:15.041Z,101144.16
2022-12-04T20:26:41.768Z,101138.91
2022-12-04T20:29:08.575Z,101137.19
2022-12-04T20:31:35.303Z,101127.44
2022-12-04T20:34:02.080Z,101136.69
2022-12-04T20:36:28.821Z,101134.56
2022-12-04T20:38:55.596Z,101137.94
2022-12-04T20:41:22.357Z,101144.06
2022-12-04T20:43:49.113Z,101133.22
2022-12-04T20:46:15.892Z,101134.28
2022-12-04T20:48:49.210Z,101136.38
2022-12-04T20:51:16.680Z,101131.59
2022-12-04T20:53:43.734Z,101133.41
2022-12-04T20:56:10.468Z,101124.69
2022-12-04T20:58:37.216Z,101130.63
2022-12-04T21:01:04.033Z,101135.91
2022-12-04T21:03:30.784Z,101133.41
2022-12-04T21:05:57.584Z,101131.69
2022-12-04T21:08:50.412Z,101127.25
2022-12-04T21:11:17.144Z,101127.06
2022-12-04T21:14:02.547Z,101113.94
2022-12-04T21:16:29.442Z,101118.97
2022-12-04T21:18:56.230Z,101122.72
2022-12-04T21:21:22.956Z,101114.03
2022-12-04T21:23:49.699Z,101116.72
2022-12-04T21:26:16.415Z,101114.66
2022-12-04T21:28:43.158Z,101105.31
2022-12-04T21:31:09.948Z,101103.69
2022-12-04T21:33:36.697Z,101103.19
2022-12-04T21:36:03.564Z,101107.88
2022-12-04T21:38:30.302Z,101105.44
2022-12-04T21:40:57.044Z,101100.84
2022-12-04T21:43:24.229Z,101100.41
2022-12-04T21:45:51.004Z,101100.03
2022-12-04T21:48:17.795Z,101093.47
2022-12-04T21:50:44.618Z,101087.31
2022-12-04T21:53:11.608Z,101087.13
2022-12-04T21:55:38.402Z,101082.88
2022-12-04T21:58:05.190Z,101093.38
2022-12-04T22:00:31.992Z,101081.31
2022-12-04T22:02:59.474Z,101089.06
2022-12-04T22:05:26.211Z,101080.84
2022-12-04T22:07:53.049Z,101083.72
2022-12-04T22:10:19.820Z,101089.22
2022-12-04T22:12:50.541Z,101084.66
2022-12-04T22:15:17.630Z,101079.34
2022-12-04T22:17:44.363Z,101080.91
2022-12-04T22:20:11.103Z,101078.81
2022-12-04T22:22:37.923Z,101081.34
2022-12-04T22:25:04.656Z,101077.16
2022-12-04T22:27:31.374Z,101078.91
2022-12-04T22:29:58.327Z,101078.91
2022-12-04T22:32:25.048Z,101081.22
2022-12-04T22:34:52.050Z,101082.25
2022-12-04T22:37:18.839Z,101092.41
2022-12-04T22:39:45.586Z,101083.50
2022-12-04T22:42:12.318Z,101091.06
2022-12-04T22:44:39.060Z,101081.69
2022-12-04T22:47:05.918Z,101081.03
2022-12-04T22:49:32.683Z,101071.09
2022-12-04T22:51:59.603Z,101079.13
2022-12-04T22:54:26.354Z,101065.53
2022-12-04T22:56:53.239Z,101066.66
2022-12-04T22:59:19.985Z,101060.72
2022-12-04T23:01:46.733Z,101065.28
2022-12-04T23:04:13.466Z,101068.59
2022-12-04T23:06:40.208Z,101058.13
2022-12-04T23:09:07.145Z,101060.75
2022-12-04T23:11:34.012Z,101065.41
2022-12-04T23:14:00.804Z,101062.00
2022-12-04T23:16:27.550Z,101064.50
2022-12-04T23:18:54.285Z,101062.00
2022-12-04T23:21:21.108Z,101073.53
2022-12-04T23:23:47.925Z,101063.16
2022-12-04T23:26:14.664Z,101062.31
2022-12-04T23:28:41.476Z,101059.31
2022-12-04T23:31:08.401Z,101053.19
2022-12-04T23:33:35.257Z,101060.53
2022-12-04T23:36:02.027Z,101059.66
2022-12-04T23:38:28.784Z,101069.78
2022-12-04T23:40:55.565Z,101061.66
2022-12-04T23:43:22.309Z,101065.00
2022-12-04T23:45:49.043Z,101058.13
2022-12-04T23:48:15.784Z,101058.59
2022-12-04T23:50:42.548Z,101063.50
2022-12-04T23:53:09.265Z,101059.66
2022-12-04T23:55:36.013Z,101058.84
2022-12-04T23:58:02.765Z,101065.78
